sensor_id;sensor_type;location;lat;lon;timestamp;P1;durP1;ratioP1;P2;durP2;ratioP2
20772;SDS011;10546;50.674;4.616;2023-04-28T06:32:05;14.82;;;8.27;;
20772;SDS011;10546;50.674;4.616;2023-04-28T06:34:31;11.05;;;8.02;;
20772;SDS011;10546;50.674;4.616;2023-04-28T06:36:58;10.07;;;6.20;;
20772;SDS011;10546;50.674;4.616;2023-04-28T06:39:23;9.65;;;6.60;;
20772;SDS011;10546;50.674;4.616;2023-04-28T06:41:49;8.57;;;6.53;;
20772;SDS011;10546;50.674;4.616;2023-04-28T06:44:14;9.32;;;6.43;;
20772;SDS011;10546;50.674;4.616;2023-04-28T06:46:40;8.63;;;6.15;;
20772;SDS011;10546;50.674;4.616;2023-04-28T06:49:06;8.90;;;6.40;;
20772;SDS011;10546;50.674;4.616;2023-04-28T06:51:32;8.70;;;6.22;;
20772;SDS011;10546;50.674;4.616;2023-04-28T06:53:57;12.23;;;7.30;;
20772;SDS011;10546;50.674;4.616;2023-04-28T06:56:24;12.35;;;6.72;;
20772;SDS011;10546;50.674;4.616;2023-04-28T06:58:50;8.68;;;6.13;;
20772;SDS011;10546;50.674;4.616;2023-04-28T07:01:16;8.80;;;6.38;;
20772;SDS011;10546;50.674;4.616;2023-04-28T07:03:42;8.60;;;6.03;;
20772;SDS011;10546;50.674;4.616;2023-04-28T07:06:08;7.75;;;5.35;;
20772;SDS011;10546;50.674;4.616;2023-04-28T07:08:34;6.60;;;5.00;;
20772;SDS011;10546;50.674;4.616;2023-04-28T07:11:00;6.40;;;4.68;;
20772;SDS011;10546;50.674;4.616;2023-04-28T07:13:30;8.00;;;4.90;;
20772;SDS011;10546;50.674;4.616;2023-04-28T07:15:56;5.45;;;4.38;;
20772;SDS011;10546;50.674;4.616;2023-04-28T07:18:22;6.65;;;4.85;;
20772;SDS011;10546;50.674;4.616;2023-04-28T07:20:48;7.53;;;5.50;;
20772;SDS011;10546;50.674;4.616;2023-04-28T07:23:13;6.82;;;4.70;;
20772;SDS011;10546;50.674;4.616;2023-04-28T07:25:39;7.40;;;4.30;;
20772;SDS011;10546;50.674;4.616;2023-04-28T07:28:06;5.28;;;4.05;;
20772;SDS011;10546;50.674;4.616;2023-04-28T07:30:32;9.82;;;4.32;;
20772;SDS011;10546;50.674;4.616;2023-04-28T07:32:58;5.25;;;3.97;;
20772;SDS011;10546;50.674;4.616;2023-04-28T07:35:23;7.75;;;3.97;;
20772;SDS011;10546;50.674;4.616;2023-04-28T07:37:49;5.53;;;4.15;;
20772;SDS011;10546;50.674;4.616;2023-04-28T07:40:15;5.10;;;3.45;;
20772;SDS011;10546;50.674;4.616;2023-04-28T07:42:41;4.20;;;3.28;;
20772;SDS011;10546;50.674;4.616;2023-04-28T07:45:07;4.75;;;3.38;;
20772;SDS011;10546;50.674;4.616;2023-04-28T07:47:33;3.75;;;2.97;;
20772;SDS011;10546;50.674;4.616;2023-04-28T07:49:58;3.22;;;2.72;;
20772;SDS011;10546;50.674;4.616;2023-04-28T07:52:27;3.58;;;3.20;;
20772;SDS011;10546;50.674;4.616;2023-04-28T07:54:53;4.50;;;3.58;;
20772;SDS011;10546;50.674;4.616;2023-04-28T07:57:18;6.45;;;3.88;;
20772;SDS011;10546;50.674;4.616;2023-04-28T07:59:44;4.22;;;3.20;;
20772;SDS011;10546;50.674;4.616;2023-04-28T08:02:10;4.85;;;3.30;;
20772;SDS011;10546;50.674;4.616;2023-04-28T08:04:37;3.13;;;2.83;;
20772;SDS011;10546;50.674;4.616;2023-04-28T08:07:03;3.38;;;2.80;;
20772;SDS011;10546;50.674;4.616;2023-04-28T08:09:29;4.07;;;3.22;;
20772;SDS011;10546;50.674;4.616;2023-04-28T08:11:55;4.38;;;3.05;;
20772;SDS011;10546;50.674;4.616;2023-04-28T08:14:20;4.80;;;3.22;;
20772;SDS011;10546;50.674;4.616;2023-04-28T08:16:46;3.50;;;3.10;;
20772;SDS011;10546;50.674;4.616;2023-04-28T08:19:12;4.28;;;3.75;;
20772;SDS011;10546;50.674;4.616;2023-04-28T08:21:38;4.70;;;3.40;;
20772;SDS011;10546;50.674;4.616;2023-04-28T08:24:04;4.47;;;3.75;;
20772;SDS011;10546;50.674;4.616;2023-04-28T08:26:29;3.60;;;3.30;;
20772;SDS011;10546;50.674;4.616;2023-04-28T08:28:56;4.25;;;3.03;;
20772;SDS011;10546;50.674;4.616;2023-04-28T08:31:21;3.05;;;2.72;;
20772;SDS011;10546;50.674;4.616;2023-04-28T08:33:47;4.78;;;2.60;;
20772;SDS011;10546;50.674;4.616;2023-04-28T08:36:15;3.13;;;2.40;;
20772;SDS011;10546;50.674;4.616;2023-04-28T08:38:42;2.40;;;2.20;;
20772;SDS011;10546;50.674;4.616;2023-04-28T08:41:09;2.85;;;2.00;;
20772;SDS011;10546;50.674;4.616;2023-04-28T08:43:36;4.50;;;1.63;;
20772;SDS011;10546;50.674;4.616;2023-04-28T08:46:04;3.13;;;1.40;;
20772;SDS011;10546;50.674;4.616;2023-04-28T08:48:33;2.78;;;1.58;;
20772;SDS011;10546;50.674;4.616;2023-04-28T08:51:06;1.65;;;1.50;;
20772;SDS011;10546;50.674;4.616;2023-04-28T08:53:35;2.00;;;1.67;;
20772;SDS011;10546;50.674;4.616;2023-04-28T08:56:03;3.15;;;1.90;;
20772;SDS011;10546;50.674;4.616;2023-04-28T08:58:31;2.53;;;1.88;;
20772;SDS011;10546;50.674;4.616;2023-04-28T09:00:59;3.83;;;1.80;;
20772;SDS011;10546;50.674;4.616;2023-04-28T09:03:28;2.10;;;1.40;;
20772;SDS011;10546;50.674;4.616;2023-04-28T09:05:54;2.70;;;1.90;;
20772;SDS011;10546;50.674;4.616;2023-04-28T09:08:20;1.65;;;1.30;;
20772;SDS011;10546;50.674;4.616;2023-04-28T09:10:46;2.60;;;2.05;;
20772;SDS011;10546;50.674;4.616;2023-04-28T09:13:23;3.40;;;1.65;;
20772;SDS011;10546;50.674;4.616;2023-04-28T09:15:49;1.50;;;1.30;;
20772;SDS011;10546;50.674;4.616;2023-04-28T09:18:23;1.40;;;1.30;;
20772;SDS011;10546;50.674;4.616;2023-04-28T09:20:48;3.65;;;1.40;;
20772;SDS011;10546;50.674;4.616;2023-04-28T09:23:16;1.30;;;1.20;;
20772;SDS011;10546;50.674;4.616;2023-04-28T09:28:28;1.90;;;1.77;;
20772;SDS011;10546;50.674;4.616;2023-04-28T09:30:58;1.20;;;1.10;;
20772;SDS011;10546;50.674;4.616;2023-04-28T09:33:24;1.63;;;1.10;;
20772;SDS011;10546;50.674;4.616;2023-04-28T09:35:50;1.55;;;1.33;;
20772;SDS011;10546;50.674;4.616;2023-04-28T09:38:17;1.10;;;1.00;;
20772;SDS011;10546;50.674;4.616;2023-04-28T09:40:49;2.03;;;1.13;;
20772;SDS011;10546;50.674;4.616;2023-04-28T09:45:53;1.00;;;0.90;;
20772;SDS011;10546;50.674;4.616;2023-04-28T09:48:27;2.45;;;1.02;;
20772;SDS011;10546;50.674;4.616;2023-04-28T09:50:54;1.15;;;1.05;;
20772;SDS011;10546;50.674;4.616;2023-04-28T09:53:24;1.45;;;1.00;;
20772;SDS011;10546;50.674;4.616;2023-04-28T09:55:54;1.23;;;0.90;;
20772;SDS011;10546;50.674;4.616;2023-04-28T09:58:21;1.05;;;0.70;;
20772;SDS011;10546;50.674;4.616;2023-04-28T10:00:51;4.45;;;0.75;;
20772;SDS011;10546;50.674;4.616;2023-04-28T10:03:20;0.98;;;0.77;;
20772;SDS011;10546;50.674;4.616;2023-04-28T10:05:48;0.57;;;0.52;;
20772;SDS011;10546;50.674;4.616;2023-04-28T10:08:15;1.73;;;0.70;;
20772;SDS011;10546;50.674;4.616;2023-04-28T10:10:43;1.90;;;0.73;;
20772;SDS011;10546;50.674;4.616;2023-04-28T10:13:12;1.23;;;0.90;;
20772;SDS011;10546;50.674;4.616;2023-04-28T10:15:40;0.80;;;0.80;;
20772;SDS011;10546;50.674;4.616;2023-04-28T10:18:07;1.27;;;0.90;;
20772;SDS011;10546;50.674;4.616;2023-04-28T10:20:33;0.88;;;0.80;;
20772;SDS011;10546;50.674;4.616;2023-04-28T10:25:34;1.35;;;0.60;;
20772;SDS011;10546;50.674;4.616;2023-04-28T10:28:05;1.85;;;1.00;;
20772;SDS011;10546;50.674;4.616;2023-04-28T10:30:32;4.00;;;0.80;;
20772;SDS011;10546;50.674;4.616;2023-04-28T10:33:21;1.30;;;0.75;;
20772;SDS011;10546;50.674;4.616;2023-04-28T10:35:48;2.25;;;0.70;;
20772;SDS011;10546;50.674;4.616;2023-04-28T10:38:17;0.90;;;0.80;;
20772;SDS011;10546;50.674;4.616;2023-04-28T10:40:47;2.97;;;0.85;;
20772;SDS011;10546;50.674;4.616;2023-04-28T10:56:11;3.55;;;1.17;;
20772;SDS011;10546;50.674;4.616;2023-04-28T10:58:42;3.03;;;1.45;;
20772;SDS011;10546;50.674;4.616;2023-04-28T11:01:23;2.40;;;1.00;;
20772;SDS011;10546;50.674;4.616;2023-04-28T11:06:27;2.25;;;1.10;;
20772;SDS011;10546;50.674;4.616;2023-04-28T11:09:04;2.95;;;1.60;;
20772;SDS011;10546;50.674;4.616;2023-04-28T11:14:30;2.53;;;1.50;;
20772;SDS011;10546;50.674;4.616;2023-04-28T11:16:58;3.97;;;1.70;;
20772;SDS011;10546;50.674;4.616;2023-04-28T11:19:27;2.25;;;1.60;;
20772;SDS011;10546;50.674;4.616;2023-04-28T11:22:01;3.42;;;1.70;;
20772;SDS011;10546;50.674;4.616;2023-04-28T11:24:28;1.80;;;1.60;;
20772;SDS011;10546;50.674;4.616;2023-04-28T11:26:55;2.05;;;1.60;;
20772;SDS011;10546;50.674;4.616;2023-04-28T11:29:32;1.80;;;1.10;;
20772;SDS011;10546;50.674;4.616;2023-04-28T11:32:00;3.47;;;1.20;;
20772;SDS011;10546;50.674;4.616;2023-04-28T11:34:30;2.20;;;1.30;;
20772;SDS011;10546;50.674;4.616;2023-04-28T11:36:55;38.35;;;7.53;;
20772;SDS011;10546;50.674;4.616;2023-04-28T11:39:25;32.05;;;4.82;;
20772;SDS011;10546;50.674;4.616;2023-04-28T11:41:56;2.72;;;1.10;;
20772;SDS011;10546;50.674;4.616;2023-04-28T11:44:24;5.32;;;1.25;;
20772;SDS011;10546;50.674;4.616;2023-04-28T11:49:31;3.20;;;1.25;;
20772;SDS011;10546;50.674;4.616;2023-04-28T11:52:07;1.20;;;1.10;;
20772;SDS011;10546;50.674;4.616;2023-04-28T11:54:33;3.13;;;1.02;;
20772;SDS011;10546;50.674;4.616;2023-04-28T11:57:00;1.35;;;0.90;;
20772;SDS011;10546;50.674;4.616;2023-04-28T11:59:29;1.75;;;1.00;;
20772;SDS011;10546;50.674;4.616;2023-04-28T12:01:58;1.40;;;0.90;;
20772;SDS011;10546;50.674;4.616;2023-04-28T12:04:32;1.40;;;0.85;;
20772;SDS011;10546;50.674;4.616;2023-04-28T12:07:03;1.45;;;0.80;;
20772;SDS011;10546;50.674;4.616;2023-04-28T12:09:29;1.08;;;0.95;;
20772;SDS011;10546;50.674;4.616;2023-04-28T12:11:55;0.88;;;0.80;;
20772;SDS011;10546;50.674;4.616;2023-04-28T12:14:22;0.82;;;0.70;;
20772;SDS011;10546;50.674;4.616;2023-04-28T12:16:49;0.70;;;0.70;;
20772;SDS011;10546;50.674;4.616;2023-04-28T12:19:15;1.48;;;0.88;;
20772;SDS011;10546;50.674;4.616;2023-04-28T12:21:41;1.20;;;1.00;;
20772;SDS011;10546;50.674;4.616;2023-04-28T12:26:47;3.42;;;1.00;;
20772;SDS011;10546;50.674;4.616;2023-04-28T12:32:04;1.25;;;0.70;;
20772;SDS011;10546;50.674;4.616;2023-04-28T12:34:34;4.68;;;0.75;;
20772;SDS011;10546;50.674;4.616;2023-04-28T12:37:01;0.95;;;0.77;;
20772;SDS011;10546;50.674;4.616;2023-04-28T12:39:29;2.63;;;0.82;;
20772;SDS011;10546;50.674;4.616;2023-04-28T12:42:06;1.30;;;1.13;;
20772;SDS011;10546;50.674;4.616;2023-04-28T12:44:32;3.05;;;0.82;;
20772;SDS011;10546;50.674;4.616;2023-04-28T12:47:02;2.15;;;0.60;;
20772;SDS011;10546;50.674;4.616;2023-04-28T12:49:28;1.40;;;0.85;;
20772;SDS011;10546;50.674;4.616;2023-04-28T12:51:54;1.30;;;1.10;;
20772;SDS011;10546;50.674;4.616;2023-04-28T12:54:20;2.38;;;1.88;;
20772;SDS011;10546;50.674;4.616;2023-04-28T12:56:45;3.30;;;2.30;;
20772;SDS011;10546;50.674;4.616;2023-04-28T12:59:11;3.13;;;2.08;;
20772;SDS011;10546;50.674;4.616;2023-04-28T13:01:37;2.75;;;2.10;;
20772;SDS011;10546;50.674;4.616;2023-04-28T13:04:03;2.88;;;2.28;;
20772;SDS011;10546;50.674;4.616;2023-04-28T13:06:29;4.65;;;2.05;;
20772;SDS011;10546;50.674;4.616;2023-04-28T13:08:55;2.85;;;2.40;;
20772;SDS011;10546;50.674;4.616;2023-04-28T13:11:20;3.47;;;2.90;;
20772;SDS011;10546;50.674;4.616;2023-04-28T13:13:48;3.17;;;2.83;;
20772;SDS011;10546;50.674;4.616;2023-04-28T13:16:15;4.72;;;2.30;;
20772;SDS011;10546;50.674;4.616;2023-04-28T13:18:40;3.08;;;1.90;;
20772;SDS011;10546;50.674;4.616;2023-04-28T13:21:06;2.10;;;1.90;;
20772;SDS011;10546;50.674;4.616;2023-04-28T13:23:32;1.88;;;1.67;;
20772;SDS011;10546;50.674;4.616;2023-04-28T13:25:58;1.35;;;1.15;;
20772;SDS011;10546;50.674;4.616;2023-04-28T13:28:23;3.10;;;1.13;;
20772;SDS011;10546;50.674;4.616;2023-04-28T13:30:49;1.30;;;1.20;;
20772;SDS011;10546;50.674;4.616;2023-04-28T13:33:15;1.98;;;1.42;;
20772;SDS011;10546;50.674;4.616;2023-04-28T13:35:41;0.90;;;0.90;;
20772;SDS011;10546;50.674;4.616;2023-04-28T13:38:06;1.65;;;1.20;;
20772;SDS011;10546;50.674;4.616;2023-04-28T13:40:32;2.13;;;1.30;;
20772;SDS011;10546;50.674;4.616;2023-04-28T13:42:58;1.48;;;1.20;;
20772;SDS011;10546;50.674;4.616;2023-04-28T13:45:24;2.25;;;1.30;;
20772;SDS011;10546;50.674;4.616;2023-04-28T13:47:50;1.38;;;1.27;;
20772;SDS011;10546;50.674;4.616;2023-04-28T13:50:18;2.58;;;1.58;;
20772;SDS011;10546;50.674;4.616;2023-04-28T13:52:44;1.73;;;1.60;;
20772;SDS011;10546;50.674;4.616;2023-04-28T13:55:09;1.92;;;1.67;;
20772;SDS011;10546;50.674;4.616;2023-04-28T13:57:35;1.77;;;1.67;;
20772;SDS011;10546;50.674;4.616;2023-04-28T14:00:01;2.15;;;1.58;;
20772;SDS011;10546;50.674;4.616;2023-04-28T14:02:29;1.55;;;1.45;;
20772;SDS011;10546;50.674;4.616;2023-04-28T14:04:54;1.95;;;1.65;;
20772;SDS011;10546;50.674;4.616;2023-04-28T14:07:20;1.67;;;1.40;;
20772;SDS011;10546;50.674;4.616;2023-04-28T14:09:46;3.15;;;1.42;;
20772;SDS011;10546;50.674;4.616;2023-04-28T14:12:13;4.35;;;1.67;;
20772;SDS011;10546;50.674;4.616;2023-04-28T14:14:40;5.90;;;2.03;;
20772;SDS011;10546;50.674;4.616;2023-04-28T14:17:06;2.05;;;1.67;;
20772;SDS011;10546;50.674;4.616;2023-04-28T14:19:32;2.92;;;1.88;;
20772;SDS011;10546;50.674;4.616;2023-04-28T14:22:01;1.67;;;1.52;;
20772;SDS011;10546;50.674;4.616;2023-04-28T14:24:27;1.80;;;1.70;;
20772;SDS011;10546;50.674;4.616;2023-04-28T14:26:53;1.70;;;1.60;;
20772;SDS011;10546;50.674;4.616;2023-04-28T14:29:18;1.73;;;1.63;;
20772;SDS011;10546;50.674;4.616;2023-04-28T14:31:47;3.25;;;1.60;;
20772;SDS011;10546;50.674;4.616;2023-04-28T14:34:13;2.20;;;2.00;;
20772;SDS011;10546;50.674;4.616;2023-04-28T14:36:38;1.80;;;1.60;;
20772;SDS011;10546;50.674;4.616;2023-04-28T14:39:06;2.90;;;1.90;;
20772;SDS011;10546;50.674;4.616;2023-04-28T14:41:31;2.80;;;1.80;;
20772;SDS011;10546;50.674;4.616;2023-04-28T14:43:57;3.05;;;1.70;;
20772;SDS011;10546;50.674;4.616;2023-04-28T14:46:23;1.83;;;1.70;;
20772;SDS011;10546;50.674;4.616;2023-04-28T14:48:49;3.65;;;1.92;;
20772;SDS011;10546;50.674;4.616;2023-04-28T14:51:15;2.22;;;1.90;;
20772;SDS011;10546;50.674;4.616;2023-04-28T14:53:42;1.95;;;1.75;;
20772;SDS011;10546;50.674;4.616;2023-04-28T14:56:08;2.13;;;1.60;;
20772;SDS011;10546;50.674;4.616;2023-04-28T14:58:34;2.05;;;1.70;;
20772;SDS011;10546;50.674;4.616;2023-04-28T15:01:00;3.50;;;1.95;;
20772;SDS011;10546;50.674;4.616;2023-04-28T15:03:27;3.05;;;1.90;;
20772;SDS011;10546;50.674;4.616;2023-04-28T15:05:53;1.75;;;1.63;;
20772;SDS011;10546;50.674;4.616;2023-04-28T15:08:19;2.75;;;1.50;;
20772;SDS011;10546;50.674;4.616;2023-04-28T15:10:45;6.43;;;1.92;;
20772;SDS011;10546;50.674;4.616;2023-04-28T15:13:10;2.40;;;1.88;;
20772;SDS011;10546;50.674;4.616;2023-04-28T15:15:36;2.00;;;1.50;;
20772;SDS011;10546;50.674;4.616;2023-04-28T15:18:02;1.98;;;1.85;;
20772;SDS011;10546;50.674;4.616;2023-04-28T15:20:29;4.38;;;2.10;;
20772;SDS011;10546;50.674;4.616;2023-04-28T15:22:56;4.40;;;2.30;;
20772;SDS011;10546;50.674;4.616;2023-04-28T15:25:23;1.98;;;1.75;;
20772;SDS011;10546;50.674;4.616;2023-04-28T15:27:49;3.70;;;1.98;;
20772;SDS011;10546;50.674;4.616;2023-04-28T15:30:15;3.60;;;1.83;;
20772;SDS011;10546;50.674;4.616;2023-04-28T15:32:42;2.72;;;2.22;;
20772;SDS011;10546;50.674;4.616;2023-04-28T15:35:08;2.75;;;2.20;;
20772;SDS011;10546;50.674;4.616;2023-04-28T15:40:12;1.88;;;1.67;;
20772;SDS011;10546;50.674;4.616;2023-04-28T15:42:39;2.80;;;1.70;;
20772;SDS011;10546;50.674;4.616;2023-04-28T15:45:17;2.85;;;1.98;;
20772;SDS011;10546;50.674;4.616;2023-04-28T15:47:47;4.72;;;2.00;;
20772;SDS011;10546;50.674;4.616;2023-04-28T15:50:18;2.58;;;1.70;;
20772;SDS011;10546;50.674;4.616;2023-04-28T15:52:45;3.70;;;2.00;;
20772;SDS011;10546;50.674;4.616;2023-04-28T15:55:12;2.15;;;1.95;;
20772;SDS011;10546;50.674;4.616;2023-04-28T15:57:39;2.33;;;2.10;;
20772;SDS011;10546;50.674;4.616;2023-04-28T16:00:05;4.30;;;3.10;;
20772;SDS011;10546;50.674;4.616;2023-04-28T16:02:31;5.45;;;3.22;;
20772;SDS011;10546;50.674;4.616;2023-04-28T16:04:57;6.93;;;4.95;;
20772;SDS011;10546;50.674;4.616;2023-04-28T16:07:27;13.32;;;10.52;;
20772;SDS011;10546;50.674;4.616;2023-04-28T16:09:56;21.20;;;16.67;;
20772;SDS011;10546;50.674;4.616;2023-04-28T16:12:21;7.90;;;6.53;;
20772;SDS011;10546;50.674;4.616;2023-04-28T16:14:47;10.65;;;8.77;;
20772;SDS011;10546;50.674;4.616;2023-04-28T16:17:15;6.28;;;5.55;;
20772;SDS011;10546;50.674;4.616;2023-04-28T16:19:41;4.93;;;4.53;;
20772;SDS011;10546;50.674;4.616;2023-04-28T16:22:07;7.80;;;5.15;;
20772;SDS011;10546;50.674;4.616;2023-04-28T16:24:33;13.25;;;9.38;;
20772;SDS011;10546;50.674;4.616;2023-04-28T16:27:01;4.38;;;3.97;;
20772;SDS011;10546;50.674;4.616;2023-04-28T16:29:27;5.95;;;3.83;;
20772;SDS011;10546;50.674;4.616;2023-04-28T16:31:53;4.25;;;3.53;;
20772;SDS011;10546;50.674;4.616;2023-04-28T16:34:19;2.80;;;2.08;;
20772;SDS011;10546;50.674;4.616;2023-04-28T16:36:44;6.18;;;4.22;;
20772;SDS011;10546;50.674;4.616;2023-04-28T16:39:10;4.65;;;2.50;;
20772;SDS011;10546;50.674;4.616;2023-04-28T16:41:36;3.13;;;2.28;;
20772;SDS011;10546;50.674;4.616;2023-04-28T16:44:02;6.25;;;2.53;;
20772;SDS011;10546;50.674;4.616;2023-04-28T16:46:27;3.35;;;2.83;;
20772;SDS011;10546;50.674;4.616;2023-04-28T16:48:53;4.40;;;1.83;;
20772;SDS011;10546;50.674;4.616;2023-04-28T16:51:19;3.70;;;2.58;;
20772;SDS011;10546;50.674;4.616;2023-04-28T16:53:45;3.45;;;3.15;;
20772;SDS011;10546;50.674;4.616;2023-04-28T16:56:11;3.08;;;2.30;;
20772;SDS011;10546;50.674;4.616;2023-04-28T16:58:37;4.05;;;2.40;;
20772;SDS011;10546;50.674;4.616;2023-04-28T17:01:02;4.90;;;3.00;;
20772;SDS011;10546;50.674;4.616;2023-04-28T17:03:28;4.13;;;3.55;;
20772;SDS011;10546;50.674;4.616;2023-04-28T17:05:54;3.35;;;3.03;;
20772;SDS011;10546;50.674;4.616;2023-04-28T17:08:20;4.95;;;2.70;;
20772;SDS011;10546;50.674;4.616;2023-04-28T17:10:45;5.25;;;4.22;;
20772;SDS011;10546;50.674;4.616;2023-04-28T17:13:11;8.00;;;6.22;;
20772;SDS011;10546;50.674;4.616;2023-04-28T17:15:37;8.43;;;5.65;;
20772;SDS011;10546;50.674;4.616;2023-04-28T17:18:02;20.35;;;14.95;;
20772;SDS011;10546;50.674;4.616;2023-04-28T17:20:28;11.23;;;8.35;;
20772;SDS011;10546;50.674;4.616;2023-04-28T17:22:54;11.35;;;7.72;;
20772;SDS011;10546;50.674;4.616;2023-04-28T17:25:21;46.85;;;26.20;;
20772;SDS011;10546;50.674;4.616;2023-04-28T17:27:47;52.33;;;29.65;;
20772;SDS011;10546;50.674;4.616;2023-04-28T17:30:13;35.30;;;19.48;;
20772;SDS011;10546;50.674;4.616;2023-04-28T17:32:39;30.83;;;18.00;;
20772;SDS011;10546;50.674;4.616;2023-04-28T17:35:05;32.08;;;18.08;;
20772;SDS011;10546;50.674;4.616;2023-04-28T17:37:32;47.85;;;28.48;;
20772;SDS011;10546;50.674;4.616;2023-04-28T17:39:58;29.88;;;17.50;;
20772;SDS011;10546;50.674;4.616;2023-04-28T17:42:27;14.82;;;10.18;;
20772;SDS011;10546;50.674;4.616;2023-04-28T17:44:54;10.50;;;8.32;;
20772;SDS011;10546;50.674;4.616;2023-04-28T17:47:20;8.73;;;7.15;;
20772;SDS011;10546;50.674;4.616;2023-04-28T17:49:45;6.53;;;5.78;;
20772;SDS011;10546;50.674;4.616;2023-04-28T17:52:11;6.40;;;5.57;;
20772;SDS011;10546;50.674;4.616;2023-04-28T17:54:39;7.43;;;5.45;;
20772;SDS011;10546;50.674;4.616;2023-04-28T17:57:05;15.38;;;11.75;;
20772;SDS011;10546;50.674;4.616;2023-04-28T17:59:31;16.77;;;14.32;;
20772;SDS011;10546;50.674;4.616;2023-04-28T18:01:56;22.38;;;17.77;;
20772;SDS011;10546;50.674;4.616;2023-04-28T18:04:22;14.50;;;9.32;;
20772;SDS011;10546;50.674;4.616;2023-04-28T18:06:50;26.05;;;16.85;;
20772;SDS011;10546;50.674;4.616;2023-04-28T18:09:15;14.25;;;12.75;;
20772;SDS011;10546;50.674;4.616;2023-04-28T18:11:41;7.72;;;6.13;;
20772;SDS011;10546;50.674;4.616;2023-04-28T18:14:07;6.75;;;4.90;;
20772;SDS011;10546;50.674;4.616;2023-04-28T18:16:32;9.25;;;6.45;;
20772;SDS011;10546;50.674;4.616;2023-04-28T18:18:58;10.32;;;6.93;;
20772;SDS011;10546;50.674;4.616;2023-04-28T18:21:24;8.07;;;5.72;;
20772;SDS011;10546;50.674;4.616;2023-04-28T18:23:49;9.27;;;6.20;;
20772;SDS011;10546;50.674;4.616;2023-04-28T18:26:15;8.98;;;6.13;;
20772;SDS011;10546;50.674;4.616;2023-04-28T18:28:44;9.25;;;5.60;;
20772;SDS011;10546;50.674;4.616;2023-04-28T18:31:12;9.65;;;6.82;;
20772;SDS011;10546;50.674;4.616;2023-04-28T18:33:37;14.52;;;7.10;;
20772;SDS011;10546;50.674;4.616;2023-04-28T18:36:04;12.45;;;6.70;;
20772;SDS011;10546;50.674;4.616;2023-04-28T18:38:31;23.33;;;14.25;;
20772;SDS011;10546;50.674;4.616;2023-04-28T18:40:59;33.63;;;18.08;;
20772;SDS011;10546;50.674;4.616;2023-04-28T18:43:45;20.90;;;12.25;;
20772;SDS011;10546;50.674;4.616;2023-04-28T18:46:11;20.60;;;10.50;;
20772;SDS011;10546;50.674;4.616;2023-04-28T18:48:37;12.70;;;8.48;;
20772;SDS011;10546;50.674;4.616;2023-04-28T18:51:03;13.40;;;8.02;;
20772;SDS011;10546;50.674;4.616;2023-04-28T18:53:30;18.60;;;13.90;;
20772;SDS011;10546;50.674;4.616;2023-04-28T18:55:57;21.48;;;13.20;;
20772;SDS011;10546;50.674;4.616;2023-04-28T18:58:24;16.25;;;11.15;;
20772;SDS011;10546;50.674;4.616;2023-04-28T19:00:50;18.65;;;12.13;;
20772;SDS011;10546;50.674;4.616;2023-04-28T19:03:16;18.70;;;12.00;;
20772;SDS011;10546;50.674;4.616;2023-04-28T19:05:42;17.08;;;10.63;;
20772;SDS011;10546;50.674;4.616;2023-04-28T19:08:08;19.30;;;10.65;;
20772;SDS011;10546;50.674;4.616;2023-04-28T19:10:34;18.05;;;10.40;;
20772;SDS011;10546;50.674;4.616;2023-04-28T19:13:00;20.00;;;11.38;;
20772;SDS011;10546;50.674;4.616;2023-04-28T19:15:26;18.73;;;11.50;;
20772;SDS011;10546;50.674;4.616;2023-04-28T19:17:52;19.15;;;11.13;;
20772;SDS011;10546;50.674;4.616;2023-04-28T19:20:19;20.65;;;11.13;;
20772;SDS011;10546;50.674;4.616;2023-04-28T19:22:45;19.02;;;12.20;;
20772;SDS011;10546;50.674;4.616;2023-04-28T19:25:15;20.23;;;13.77;;
20772;SDS011;10546;50.674;4.616;2023-04-28T19:27:41;22.05;;;11.73;;
20772;SDS011;10546;50.674;4.616;2023-04-28T19:30:08;19.23;;;12.43;;
20772;SDS011;10546;50.674;4.616;2023-04-28T19:32:36;22.73;;;12.95;;
20772;SDS011;10546;50.674;4.616;2023-04-28T19:35:02;20.00;;;13.57;;
20772;SDS011;10546;50.674;4.616;2023-04-28T19:37:28;22.42;;;14.30;;
20772;SDS011;10546;50.674;4.616;2023-04-28T19:39:54;22.65;;;14.00;;
20772;SDS011;10546;50.674;4.616;2023-04-28T19:42:19;19.10;;;12.70;;
20772;SDS011;10546;50.674;4.616;2023-04-28T19:44:46;23.42;;;13.20;;
20772;SDS011;10546;50.674;4.616;2023-04-28T19:47:12;18.00;;;12.80;;
20772;SDS011;10546;50.674;4.616;2023-04-28T19:49:50;25.02;;;16.85;;
20772;SDS011;10546;50.674;4.616;2023-04-28T19:52:19;22.85;;;14.57;;
20772;SDS011;10546;50.674;4.616;2023-04-28T19:54:46;20.85;;;13.98;;
20772;SDS011;10546;50.674;4.616;2023-04-28T19:57:12;21.73;;;13.48;;
20772;SDS011;10546;50.674;4.616;2023-04-28T19:59:38;21.67;;;14.90;;
20772;SDS011;10546;50.674;4.616;2023-04-28T20:02:05;23.40;;;13.77;;
20772;SDS011;10546;50.674;4.616;2023-04-28T20:04:33;18.45;;;12.70;;
20772;SDS011;10546;50.674;4.616;2023-04-28T20:06:59;24.00;;;12.98;;
20772;SDS011;10546;50.674;4.616;2023-04-28T20:09:25;16.73;;;11.48;;
20772;SDS011;10546;50.674;4.616;2023-04-28T20:11:52;24.33;;;12.23;;
20772;SDS011;10546;50.674;4.616;2023-04-28T20:14:18;21.25;;;13.15;;
20772;SDS011;10546;50.674;4.616;2023-04-28T20:16:45;21.88;;;12.65;;
20772;SDS011;10546;50.674;4.616;2023-04-28T20:19:11;18.48;;;13.80;;
20772;SDS011;10546;50.674;4.616;2023-04-28T20:21:37;20.10;;;12.10;;
20772;SDS011;10546;50.674;4.616;2023-04-28T20:24:03;20.17;;;13.05;;
20772;SDS011;10546;50.674;4.616;2023-04-28T20:26:30;26.55;;;18.15;;
20772;SDS011;10546;50.674;4.616;2023-04-28T20:28:56;21.88;;;14.00;;
20772;SDS011;10546;50.674;4.616;2023-04-28T20:31:23;22.65;;;12.45;;
20772;SDS011;10546;50.674;4.616;2023-04-28T20:33:49;18.05;;;11.95;;
20772;SDS011;10546;50.674;4.616;2023-04-28T20:36:14;20.58;;;13.35;;
20772;SDS011;10546;50.674;4.616;2023-04-28T20:38:40;16.77;;;12.15;;
20772;SDS011;10546;50.674;4.616;2023-04-28T20:41:08;19.42;;;12.75;;
20772;SDS011;10546;50.674;4.616;2023-04-28T20:43:34;18.35;;;12.82;;
20772;SDS011;10546;50.674;4.616;2023-04-28T20:46:00;16.67;;;11.25;;
20772;SDS011;10546;50.674;4.616;2023-04-28T20:48:27;19.48;;;11.68;;
20772;SDS011;10546;50.674;4.616;2023-04-28T20:50:54;18.08;;;12.32;;
20772;SDS011;10546;50.674;4.616;2023-04-28T20:53:20;17.85;;;11.65;;
20772;SDS011;10546;50.674;4.616;2023-04-28T20:55:46;19.45;;;13.38;;
20772;SDS011;10546;50.674;4.616;2023-04-28T20:58:12;22.85;;;12.80;;
20772;SDS011;10546;50.674;4.616;2023-04-28T21:00:38;19.90;;;13.15;;
20772;SDS011;10546;50.674;4.616;2023-04-28T21:03:07;19.20;;;12.60;;
20772;SDS011;10546;50.674;4.616;2023-04-28T21:05:39;21.33;;;12.93;;
20772;SDS011;10546;50.674;4.616;2023-04-28T21:08:09;21.65;;;12.82;;
20772;SDS011;10546;50.674;4.616;2023-04-28T21:10:36;22.15;;;13.13;;
20772;SDS011;10546;50.674;4.616;2023-04-28T21:13:02;19.45;;;12.43;;
